Time;durP1;ratioP1;P1;durP2;ratioP2;P2;SDS_P1;SDS_P2;PMS_P1;PMS_P2;Temp;Humidity;BMP_temperature;BMP_pressure;BME280_temperature;BME280_humidity;BME280_pressure;Samples;Min_cycle;Max_cycle;Signal;HPM_P1;HPM_P2
2021/12/07 00:00:30;;;;;;;;;1.00;1.00;;;;;7.15;79.11;100987.69;5067484;28;45818;-94
2021/12/07 00:02:55;;;;;;;;;1.67;1.67;;;;;7.15;79.10;100992.91;5045970;28;47541;-94
2021/12/07 00:05:21;;;;;;;;;3.33;2.33;;;;;7.16;79.44;100994.72;5053868;28;45426;-95
2021/12/07 00:07:46;;;;;;;;;2.67;2.67;;;;;7.18;79.12;100990.50;5056317;28;45298;-94
2021/12/07 00:10:13;;;;;;;;;1.67;1.67;;;;;7.23;79.36;100998.59;5043262;28;45423;-95
2021/12/07 00:12:42;;;;;;;;;1.67;0.67;;;;;7.21;79.21;101005.44;5050679;28;47184;-94
2021/12/07 00:15:11;;;;;;;;;6.67;3.00;;;;;7.23;79.40;100994.28;5045368;28;45401;-95
2021/12/07 00:17:36;;;;;;;;;5.33;2.00;;;;;7.19;79.55;100979.22;5043507;28;45434;-93
2021/12/07 00:20:08;;;;;;;;;4.67;2.00;;;;;7.29;79.40;100998.09;5041425;28;45504;-94
2021/12/07 00:22:35;;;;;;;;;5.00;1.00;;;;;7.27;79.09;100982.31;5057519;28;47223;-95
2021/12/07 00:25:00;;;;;;;;;2.33;1.33;;;;;7.31;79.76;100989.56;5037415;28;45932;-95
2021/12/07 00:27:25;;;;;;;;;1.00;1.00;;;;;7.38;79.43;100990.81;5037316;28;45360;-94
2021/12/07 00:29:51;;;;;;;;;1.67;1.00;;;;;7.37;78.88;100991.66;5049060;28;45467;-94
2021/12/07 00:32:25;;;;;;;;;3.00;1.67;;;;;7.45;78.43;100995.63;5071369;28;47029;-95
2021/12/07 00:37:35;;;;;;;;;4.00;1.33;;;;;7.43;77.15;100992.00;5038869;28;45348;-95
2021/12/07 00:40:05;;;;;;;;;6.00;2.00;;;;;7.37;76.61;100981.22;5036676;28;45590;-94
2021/12/07 00:42:31;;;;;;;;;2.00;2.00;;;;;7.44;78.05;101003.38;5053619;28;48285;-95
2021/12/07 00:44:56;;;;;;;;;2.00;2.00;;;;;7.40;77.00;101001.34;5057746;28;45384;-95
2021/12/07 00:47:22;;;;;;;;;2.33;1.00;;;;;7.42;77.63;101005.00;5056700;28;45606;-95
2021/12/07 00:49:47;;;;;;;;;6.67;2.67;;;;;7.38;77.19;100999.56;5056750;28;45406;-95
2021/12/07 00:52:12;;;;;;;;;5.33;2.00;;;;;7.37;77.19;101000.38;5057522;28;47424;-95
2021/12/07 00:54:39;;;;;;;;;1.67;1.00;;;;;7.38;77.19;101003.88;5056465;28;45476;-94
2021/12/07 00:57:05;;;;;;;;;4.00;2.00;;;;;7.37;76.02;101010.81;5054787;28;45471;-94
2021/12/07 00:59:31;;;;;;;;;1.33;1.00;;;;;7.40;73.95;101024.88;5049164;28;45573;-94
2021/12/07 01:01:57;;;;;;;;;2.33;1.67;;;;;7.35;74.67;101019.34;5040163;28;47261;-95
2021/12/07 01:04:24;;;;;;;;;3.00;2.00;;;;;7.30;77.55;101018.16;5057308;28;45414;-95
2021/12/07 01:09:34;;;;;;;;;1.00;1.00;;;;;7.36;77.19;101022.09;5042097;28;45517;-95
2021/12/07 01:26:06;;;;;;;;;1.00;1.00;;;;;7.18;76.28;101000.94;5014930;28;45503;-94
2021/12/07 01:29:42;;;;;;;;;1.00;1.00;;;;;7.16;74.51;101007.78;4995951;28;45390;-94
2021/12/07 01:51:06;;;;;;;;;1.67;0.00;;;;;6.91;77.69;101014.00;5057195;28;45194;-95
2021/12/07 02:01:43;;;;;;;;;0.00;0.00;;;;;6.74;78.23;101019.03;5057320;28;45258;-96
2021/12/07 02:04:09;;;;;;;;;0.00;0.00;;;;;6.77;77.28;101024.47;5072969;28;45471;-96
2021/12/07 02:06:35;;;;;;;;;1.00;1.00;;;;;6.77;77.59;101027.06;5072469;28;48185;-95
2021/12/07 02:09:00;;;;;;;;;0.67;0.67;;;;;6.75;77.26;101019.94;5055527;28;45471;-95
2021/12/07 02:11:25;;;;;;;;;2.00;0.67;;;;;6.80;78.04;101016.81;5056078;28;45286;-94
2021/12/07 02:16:18;;;;;;;;;0.00;0.00;;;;;6.80;77.03;101019.44;5056897;28;45419;-95
2021/12/07 02:18:44;;;;;;;;;0.00;0.00;;;;;6.73;77.46;101014.63;5057712;28;45859;-95
2021/12/07 02:21:21;;;;;;;;;1.00;1.00;;;;;6.74;77.16;101025.97;5056443;28;45479;-96
2021/12/07 02:23:47;;;;;;;;;0.00;0.00;;;;;6.65;77.45;101008.91;5080368;28;44822;-96
2021/12/07 02:26:13;;;;;;;;;0.33;0.33;;;;;6.64;76.91;101027.06;5079630;28;47047;-95
2021/12/07 02:28:39;;;;;;;;;1.00;0.00;;;;;6.56;75.95;101024.84;5076920;28;45132;-94
2021/12/07 02:31:10;;;;;;;;;0.00;0.00;;;;;6.61;77.53;101032.06;5075620;28;44715;-96
2021/12/07 02:33:36;;;;;;;;;0.00;0.00;;;;;6.53;77.89;101023.75;5048993;28;45330;-95
2021/12/07 02:36:02;;;;;;;;;1.00;1.00;;;;;6.53;76.99;101029.88;5055634;28;45529;-95
2021/12/07 02:38:28;;;;;;;;;2.00;1.00;;;;;6.43;77.84;101024.84;5068096;28;45462;-96
2021/12/07 02:40:53;;;;;;;;;1.00;0.00;;;;;6.46;78.32;101032.88;5055561;28;45492;-95
2021/12/07 02:43:20;;;;;;;;;0.00;0.00;;;;;6.45;77.96;101026.75;5072320;28;45618;-95
2021/12/07 02:45:45;;;;;;;;;0.67;0.67;;;;;6.45;77.51;101020.63;5051860;28;47256;-95
2021/12/07 02:48:10;;;;;;;;;1.00;1.00;;;;;6.43;76.72;101030.97;5049767;28;46007;-95
2021/12/07 02:50:36;;;;;;;;;0.00;0.00;;;;;6.34;77.84;101020.81;5055395;28;45529;-96
2021/12/07 02:53:02;;;;;;;;;0.50;0.50;;;;;6.40;77.95;101032.44;5051531;28;45512;-95
2021/12/07 02:55:30;;;;;;;;;1.00;0.00;;;;;6.36;77.72;101020.94;5051936;28;48013;-95
2021/12/07 02:57:56;;;;;;;;;0.00;0.00;;;;;6.29;78.27;101005.69;5051820;28;45643;-96
2021/12/07 03:00:25;;;;;;;;;2.00;1.00;;;;;6.34;77.61;101017.31;5054877;28;45404;-95
2021/12/07 03:02:57;;;;;;;;;1.00;1.00;;;;;6.26;78.19;101014.19;5055096;28;45370;-94
2021/12/07 03:09:09;;;;;;;;;0.00;0.00;;;;;6.28;78.25;101029.94;5056758;28;45411;-95
2021/12/07 03:27:53;;;;;;;;;4.67;2.00;;;;;6.35;78.64;101039.97;5059217;28;45796;-95
2021/12/07 03:30:19;;;;;;;;;1.00;0.33;;;;;6.40;78.34;101042.88;5057820;28;45836;-94
2021/12/07 03:32:45;;;;;;;;;1.67;1.67;;;;;6.37;78.33;101039.28;5058161;28;45414;-94
2021/12/07 03:35:10;;;;;;;;;3.00;2.33;;;;;6.40;78.82;101045.47;5057349;28;45512;-94
2021/12/07 03:37:36;;;;;;;;;1.67;1.00;;;;;6.43;78.94;101048.31;5058370;28;47195;-95
2021/12/07 03:40:02;;;;;;;;;1.67;1.00;;;;;6.50;78.96;101052.22;5057924;28;45268;-95
2021/12/07 03:42:28;;;;;;;;;1.00;1.00;;;;;6.51;78.55;101047.13;5057736;28;45563;-95
2021/12/07 03:44:53;;;;;;;;;1.00;1.00;;;;;6.43;77.57;101025.75;5057884;28;45503;-95
2021/12/07 03:47:18;;;;;;;;;2.00;1.00;;;;;6.42;78.23;101036.06;5057668;28;47546;-95
2021/12/07 03:49:44;;;;;;;;;1.67;1.67;;;;;6.39;77.75;101043.69;5052361;28;45497;-95
2021/12/07 03:52:09;;;;;;;;;1.00;1.00;;;;;6.34;77.98;101039.06;5057998;28;45485;-95
2021/12/07 03:54:34;;;;;;;;;1.00;1.00;;;;;6.29;77.10;101037.84;5057898;28;45419;-96
2021/12/07 03:57:00;;;;;;;;;3.00;0.00;;;;;6.28;78.04;101033.44;5057953;28;47330;-95
2021/12/07 03:59:25;;;;;;;;;1.33;1.00;;;;;6.28;77.90;101028.22;5074372;28;45663;-95
2021/12/07 04:01:52;;;;;;;;;1.00;1.00;;;;;6.24;77.46;101027.09;5058353;28;45441;-95
2021/12/07 04:04:17;;;;;;;;;1.00;0.67;;;;;6.22;77.39;101027.81;5057916;28;45390;-95
2021/12/07 04:06:43;;;;;;;;;0.00;0.00;;;;;6.16;78.11;101019.59;5057525;28;47204;-95
2021/12/07 04:09:08;;;;;;;;;0.33;0.33;;;;;6.17;78.11;101018.75;5051323;28;45404;-95
2021/12/07 04:11:33;;;;;;;;;1.33;0.67;;;;;6.12;78.29;101015.84;5050402;28;45456;-95
2021/12/07 04:13:59;;;;;;;;;2.33;1.33;;;;;6.07;77.42;101017.22;5042025;28;45464;-95
2021/12/07 04:16:24;;;;;;;;;0.33;0.00;;;;;6.03;77.90;101027.41;5057696;28;47494;-94
2021/12/07 04:18:49;;;;;;;;;2.00;1.00;;;;;6.02;78.09;101029.94;5055940;28;45646;-95
2021/12/07 04:21:15;;;;;;;;;0.00;0.00;;;;;6.00;77.33;101036.75;5074242;28;45358;-95
2021/12/07 04:23:41;;;;;;;;;2.00;2.00;;;;;6.02;78.62;101042.97;5057669;28;45428;-95
2021/12/07 04:26:09;;;;;;;;;1.33;1.00;;;;;6.00;78.13;101032.44;5053763;28;47186;-94
2021/12/07 04:28:35;;;;;;;;;0.00;0.00;;;;;6.00;78.18;101031.53;5038612;28;45532;-94
2021/12/07 04:31:01;;;;;;;;;2.00;1.67;;;;;5.97;78.40;101029.63;5053708;28;45914;-95
2021/12/07 04:33:29;;;;;;;;;1.33;0.00;;;;;5.96;77.30;101039.91;5056492;28;45452;-95
2021/12/07 04:35:56;;;;;;;;;3.00;0.00;;;;;5.88;77.59;101022.06;5056721;28;47585;-94
2021/12/07 04:38:22;;;;;;;;;1.00;1.00;;;;;5.88;78.07;101022.06;5057042;28;45839;-94
2021/12/07 04:40:48;;;;;;;;;0.00;0.00;;;;;5.89;78.18;101025.56;5056236;28;45499;-94
2021/12/07 04:43:14;;;;;;;;;1.00;1.00;;;;;5.88;77.70;101027.28;5074297;28;45302;-95
2021/12/07 04:58:31;;;;;;;;;0.00;0.00;;;;;5.84;77.96;101026.97;5058053;28;45382;-96
2021/12/07 05:00:58;;;;;;;;;2.00;0.00;;;;;5.78;78.01;101019.63;5056908;28;45325;-94
2021/12/07 05:03:25;;;;;;;;;1.33;1.33;;;;;5.78;78.32;101020.53;5056935;28;45507;-95
2021/12/07 05:05:51;;;;;;;;;1.00;0.00;;;;;5.83;78.43;101026.03;5056172;28;47997;-95
2021/12/07 05:08:31;;;;;;;;;2.00;1.00;;;;;5.82;78.23;101022.53;5057122;28;45757;-94
2021/12/07 05:13:31;;;;;;;;;2.00;0.00;;;;;5.80;78.44;101020.63;5057782;28;45178;-95
2021/12/07 05:16:07;;;;;;;;;2.00;2.00;;;;;5.79;78.05;101027.56;5052918;28;47475;-95
2021/12/07 05:37:40;;;;;;;;;1.33;1.00;;;;;5.72;78.31;101029.63;5057404;28;45408;-93
2021/12/07 05:40:10;;;;;;;;;5.00;3.00;;;;;5.73;78.75;101040.13;5057064;28;45382;-95
2021/12/07 05:42:37;;;;;;;;;1.00;1.00;;;;;5.73;78.39;101036.63;5056338;28;45685;-95
2021/12/07 05:45:06;;;;;;;;;3.00;1.67;;;;;5.62;78.45;101018.53;5055410;28;45456;-96
2021/12/07 05:47:31;;;;;;;;;1.67;1.67;;;;;5.65;78.54;101023.06;5057817;28;47334;-95
2021/12/07 05:49:57;;;;;;;;;1.00;1.00;;;;;5.64;78.44;101026.47;5053155;28;45487;-93
2021/12/07 05:52:22;;;;;;;;;2.00;2.00;;;;;5.69;78.42;101040.72;5056984;28;45677;-95
2021/12/07 05:54:48;;;;;;;;;10.33;2.00;;;;;5.65;78.60;101039.59;5048305;28;45425;-94
2021/12/07 05:57:14;;;;;;;;;5.00;2.00;;;;;5.62;78.26;101034.16;5050888;28;48533;-95
2021/12/07 05:59:40;;;;;;;;;2.00;2.00;;;;;5.66;78.22;101043.13;5055256;28;45868;-95
2021/12/07 06:02:06;;;;;;;;;4.33;1.33;;;;;5.60;78.52;101038.38;5077538;28;44773;-94
2021/12/07 06:04:32;;;;;;;;;3.67;1.33;;;;;5.68;78.31;101047.63;5082824;28;44807;-96
2021/12/07 06:06:58;;;;;;;;;3.00;2.00;;;;;5.59;78.12;101039.19;5092518;27;47169;-96
2021/12/07 06:09:25;;;;;;;;;1.00;1.00;;;;;5.66;78.56;101043.13;5070979;28;46250;-96
2021/12/07 06:11:50;;;;;;;;;5.00;3.00;;;;;5.53;78.47;101017.91;5073092;28;45469;-96
2021/12/07 06:14:19;;;;;;;;;4.00;2.67;;;;;5.57;78.12;101015.63;5041768;28;45724;-94
2021/12/07 06:16:48;;;;;;;;;2.00;2.00;;;;;5.57;78.25;101018.22;5072879;28;47221;-96
2021/12/07 06:19:14;;;;;;;;;3.00;1.33;;;;;5.60;78.46;101022.75;5055613;28;45586;-96
2021/12/07 06:21:40;;;;;;;;;5.33;2.33;;;;;5.65;78.34;101017.84;5055481;28;45450;-96
2021/12/07 06:24:05;;;;;;;;;5.00;3.00;;;;;5.66;78.67;101009.25;5055788;28;45450;-96
2021/12/07 06:26:33;;;;;;;;;5.00;1.00;;;;;5.66;78.48;101001.44;5048788;28;47206;-96
2021/12/07 06:29:00;;;;;;;;;3.00;2.00;;;;;5.68;78.61;101000.75;5055969;28;45380;-96
2021/12/07 06:31:25;;;;;;;;;2.00;2.00;;;;;5.66;78.56;101002.34;5035759;28;45236;-96
2021/12/07 06:33:50;;;;;;;;;3.67;3.67;;;;;5.62;78.40;100983.81;5055512;28;45675;-96
2021/12/07 06:36:16;;;;;;;;;4.67;1.00;;;;;5.62;78.30;100981.19;5055595;28;47158;-96
2021/12/07 06:38:42;;;;;;;;;2.67;2.67;;;;;5.58;78.00;100974.88;5052256;28;45539;-96
2021/12/07 06:41:07;;;;;;;;;1.67;1.67;;;;;5.57;77.85;100979.16;5053745;28;45401;-96
2021/12/07 06:43:33;;;;;;;;;1.00;1.00;;;;;5.62;77.58;100984.69;5055705;28;45577;-96
2021/12/07 06:45:58;;;;;;;;;2.33;1.67;;;;;5.58;77.54;100980.06;5055426;28;48263;-96
2021/12/07 06:48:24;;;;;;;;;6.67;5.67;;;;;5.55;77.68;100983.38;5055678;28;45192;-96
2021/12/07 06:50:50;;;;;;;;;2.00;2.00;;;;;5.56;77.73;100974.78;5051538;28;45556;-96
2021/12/07 06:53:16;;;;;;;;;2.00;1.33;;;;;5.56;78.17;100971.25;5042148;28;45588;-96
2021/12/07 06:55:43;;;;;;;;;6.33;3.67;;;;;5.55;77.89;100962.53;5059773;28;48106;-96
2021/12/07 06:58:08;;;;;;;;;2.67;2.67;;;;;5.48;77.91;100956.00;5059427;28;45733;-96
2021/12/07 07:00:35;;;;;;;;;6.00;3.50;;;;;5.52;77.54;100954.50;5059235;28;45439;-96
2021/12/07 07:03:00;;;;;;;;;5.00;5.00;;;;;5.41;77.73;100927.72;5059424;28;45548;-96
2021/12/07 07:05:26;;;;;;;;;7.00;7.00;;;;;5.53;77.51;100945.00;5058146;28;48224;-96
2021/12/07 07:07:51;;;;;;;;;5.67;3.67;;;;;5.49;77.52;100938.66;5059300;28;45194;-96
2021/12/07 07:10:18;;;;;;;;;5.00;5.00;;;;;5.52;77.53;100946.69;5076686;28;45325;-96
2021/12/07 07:12:45;;;;;;;;;8.33;5.33;;;;;5.46;77.85;100936.75;5076377;27;45297;-96
2021/12/07 07:15:10;;;;;;;;;9.75;6.00;;;;;5.43;77.53;100928.75;5059097;28;48548;-96
2021/12/07 07:17:36;;;;;;;;;10.50;5.25;;;;;5.50;77.55;100924.84;5075240;28;45899;-96
2021/12/07 07:20:04;;;;;;;;;8.75;6.00;;;;;5.52;77.43;100931.06;5056589;28;45472;-96
2021/12/07 07:22:30;;;;;;;;;6.67;5.67;;;;;5.41;77.42;100917.28;5040157;28;45590;-96
2021/12/07 07:24:55;;;;;;;;;8.25;6.00;;;;;5.50;77.55;100922.25;5051333;28;47145;-87
2021/12/07 07:27:21;;;;;;;;;12.33;10.33;;;;;5.53;77.76;100921.56;5054219;28;45416;-89
2021/12/07 07:29:46;;;;;;;;;9.67;6.33;;;;;5.51;77.69;100910.13;5054545;28;45780;-88
2021/12/07 07:32:11;;;;;;;;;10.75;10.75;;;;;5.54;78.01;100911.22;5055307;28;45273;-88
2021/12/07 07:34:37;;;;;;;;;13.50;9.25;;;;;5.52;78.03;100897.22;5053915;28;48215;-88
2021/12/07 07:37:03;;;;;;;;;11.25;7.75;;;;;5.52;77.95;100886.78;5051959;28;45414;-89
2021/12/07 07:39:28;;;;;;;;;9.50;9.00;;;;;5.61;78.16;100881.31;5050707;28;45370;-88
2021/12/07 07:41:54;;;;;;;;;11.75;10.00;;;;;5.65;77.69;100880.72;5052109;28;45522;-89
2021/12/07 07:44:19;;;;;;;;;10.33;8.33;;;;;5.65;78.39;100880.72;5053947;28;48090;-88
2021/12/07 07:46:45;;;;;;;;;11.75;9.50;;;;;5.69;77.92;100879.25;5053313;28;45369;-89
2021/12/07 07:49:11;;;;;;;;;11.50;10.00;;;;;5.72;78.27;100876.81;5069555;28;45516;-89
2021/12/07 07:51:36;;;;;;;;;11.00;10.00;;;;;5.73;78.18;100864.69;5054725;28;45403;-89
2021/12/07 07:54:04;;;;;;;;;11.00;7.25;;;;;5.75;78.02;100865.69;5054557;28;45826;-89
2021/12/07 07:56:30;;;;;;;;;7.67;6.00;;;;;5.82;78.08;100880.97;5053686;28;45461;-89
2021/12/07 07:58:57;;;;;;;;;9.00;7.00;;;;;5.79;77.74;100863.44;5048029;28;45366;-89
2021/12/07 08:01:24;;;;;;;;;11.00;9.25;;;;;5.84;77.66;100853.31;5049006;28;45394;-88
2021/12/07 08:03:52;;;;;;;;;17.00;11.75;;;;;5.91;77.89;100855.53;5049113;28;46600;-89
2021/12/07 08:06:18;;;;;;;;;10.67;7.00;;;;;5.87;77.71;100839.59;5037730;28;45694;-89
2021/12/07 08:08:44;;;;;;;;;13.75;12.00;;;;;5.93;77.98;100843.47;5044786;28;45467;-89
2021/12/07 08:11:09;;;;;;;;;8.00;7.50;;;;;6.01;78.03;100849.19;5045765;28;45562;-88
2021/12/07 08:13:35;;;;;;;;;12.00;10.00;;;;;6.01;78.08;100846.59;5046273;28;55223;-88
2021/12/07 08:16:00;;;;;;;;;11.00;11.00;;;;;6.07;78.43;100840.94;5049708;28;45472;-88
2021/12/07 08:18:26;;;;;;;;;16.75;12.75;;;;;6.06;78.01;100832.97;5051656;28;45665;-89
2021/12/07 08:20:51;;;;;;;;;15.50;11.00;;;;;6.10;77.67;100828.09;5046315;28;45583;-89
2021/12/07 08:23:17;;;;;;;;;18.50;13.75;;;;;6.13;77.02;100822.19;5042749;28;46129;-88
2021/12/07 08:25:46;;;;;;;;;16.75;15.50;;;;;6.18;77.81;100818.19;5049413;28;45867;-88
2021/12/07 08:28:13;;;;;;;;;17.00;13.50;;;;;6.21;78.04;100818.34;5053101;28;45436;-89
2021/12/07 08:30:41;;;;;;;;;21.00;20.00;;;;;6.26;77.88;100805.63;5051895;28;45581;-88
2021/12/07 08:33:07;;;;;;;;;19.50;15.25;;;;;6.36;77.80;100815.84;5050466;28;46601;-87
2021/12/07 08:35:32;;;;;;;;;24.50;19.00;;;;;6.37;77.49;100794.16;5037735;28;45467;-87
2021/12/07 08:37:57;;;;;;;;;24.75;21.25;;;;;6.52;77.45;100818.53;5049281;28;45840;-87
2021/12/07 08:40:26;;;;;;;;;19.00;17.00;;;;;6.59;77.16;100811.19;5041676;28;45345;-87
2021/12/07 08:42:51;;;;;;;;;21.50;19.75;;;;;6.66;77.14;100809.84;5048452;28;47008;-87
2021/12/07 08:45:19;;;;;;;;;15.25;14.50;;;;;6.65;76.31;100805.41;5044682;28;45445;-87
2021/12/07 08:47:45;;;;;;;;;21.25;14.75;;;;;6.65;75.81;100799.31;5041904;28;45556;-87
2021/12/07 08:50:15;;;;;;;;;15.25;14.50;;;;;6.59;75.90;100786.81;5048732;28;45600;-86
2021/12/07 08:52:40;;;;;;;;;18.00;17.75;;;;;6.62;76.03;100771.34;5043300;28;47586;-87
2021/12/07 09:00:28;;;;;;;;;23.00;20.50;;;;;6.67;76.96;100756.88;5053193;28;45547;-90
2021/12/07 09:02:53;;;;;;;;;21.75;18.00;;;;;6.73;76.87;100756.31;5051079;28;47536;-87
2021/12/07 09:05:18;;;;;;;;;21.25;20.50;;;;;6.69;76.29;100733.47;5047668;28;45473;-87
2021/12/07 09:07:46;;;;;;;;;24.75;20.25;;;;;6.73;75.69;100726.72;5046547;28;45530;-87
2021/12/07 09:10:12;;;;;;;;;24.75;21.75;;;;;6.74;75.10;100720.72;5066826;27;45507;-88
2021/12/07 09:12:38;;;;;;;;;27.50;25.00;;;;;6.75;74.44;100720.78;5052120;28;45702;-89
2021/12/07 09:15:04;;;;;;;;;24.75;20.75;;;;;6.69;75.27;100716.13;5047826;28;45606;-87
2021/12/07 09:17:30;;;;;;;;;21.50;13.75;;;;;6.72;74.54;100724.94;5049894;28;45668;-88
2021/12/07 09:19:55;;;;;;;;;16.50;12.75;;;;;6.73;76.25;100719.81;5050775;28;45570;-88
2021/12/07 09:22:21;;;;;;;;;11.50;11.25;;;;;6.69;75.71;100689.13;5051980;28;55879;-87
2021/12/07 09:24:47;;;;;;;;;12.50;11.50;;;;;6.70;74.30;100681.38;5050896;28;45530;-86
2021/12/07 09:27:12;;;;;;;;;17.25;15.50;;;;;6.70;75.61;100690.94;5048782;28;45511;-86
2021/12/07 09:29:37;;;;;;;;;16.25;14.25;;;;;6.63;73.17;100691.34;5049951;28;45500;-86
2021/12/07 09:32:04;;;;;;;;;12.25;11.75;;;;;6.59;72.79;100705.94;5049036;28;45419;-94
2021/12/07 09:34:29;;;;;;;;;13.50;11.75;;;;;6.59;74.08;100716.38;5045258;28;46140;-88
2021/12/07 09:36:55;;;;;;;;;12.00;12.00;;;;;6.56;76.11;100711.88;5043795;28;45502;-87
2021/12/07 09:39:20;;;;;;;;;17.75;13.50;;;;;6.55;75.34;100706.53;5056393;28;45389;-91
2021/12/07 09:41:47;;;;;;;;;17.25;12.50;;;;;6.58;75.13;100702.44;5057698;28;45376;-91
2021/12/07 09:44:13;;;;;;;;;18.25;16.00;;;;;6.58;76.12;100709.34;5058073;28;45415;-86
2021/12/07 09:46:41;;;;;;;;;18.50;14.00;;;;;6.58;75.40;100705.03;5052953;28;45478;-87
2021/12/07 09:49:08;;;;;;;;;17.75;12.75;;;;;6.67;76.17;100709.94;5049929;28;45520;-87
2021/12/07 09:51:36;;;;;;;;;16.00;13.25;;;;;6.70;75.06;100691.81;5044952;28;47750;-86
2021/12/07 09:54:03;;;;;;;;;12.75;11.25;;;;;6.68;75.32;100693.44;5051004;28;45621;-85
2021/12/07 09:56:29;;;;;;;;;11.75;11.75;;;;;6.64;76.13;100691.47;5047465;28;45687;-91
2021/12/07 09:58:59;;;;;;;;;21.50;15.25;;;;;6.64;75.36;100701.91;5049457;28;45413;-87
2021/12/07 10:01:27;;;;;;;;;15.25;13.75;;;;;6.67;75.21;100711.63;5051088;28;48165;-86
2021/12/07 10:03:52;;;;;;;;;15.50;14.00;;;;;6.63;74.12;100707.00;5050841;28;45738;-85
2021/12/07 10:06:19;;;;;;;;;15.00;13.25;;;;;6.67;75.24;100715.13;5045349;28;45485;-87
2021/12/07 10:08:45;;;;;;;;;15.25;13.50;;;;;6.69;76.43;100710.91;5050149;28;45454;-87
2021/12/07 10:11:11;;;;;;;;;18.50;15.75;;;;;6.70;76.44;100686.59;5047440;28;47126;-87
2021/12/07 10:13:39;;;;;;;;;20.50;15.50;;;;;6.73;74.89;100671.94;5052327;28;45399;-87
2021/12/07 10:16:07;;;;;;;;;18.50;16.00;;;;;6.81;75.36;100663.78;5052226;28;45293;-84
2021/12/07 10:18:36;;;;;;;;;21.00;16.00;;;;;6.86;75.80;100663.13;5048277;28;45650;-85
2021/12/07 10:21:13;;;;;;;;;14.00;11.00;;;;;6.84;76.54;100642.19;5048945;28;45395;-86
2021/12/07 10:23:48;;;;;;;;;17.00;11.00;;;;;6.91;75.00;100636.50;5049317;28;45460;-85
2021/12/07 10:26:21;;;;;;;;;14.00;11.00;;;;;6.91;76.40;100627.78;5049247;28;45551;-84
2021/12/07 10:28:58;;;;;;;;;14.33;10.67;;;;;6.93;75.41;100616.63;5048763;28;45484;-86
2021/12/07 10:31:43;;;;;;;;;16.00;13.33;;;;;6.92;73.66;100609.63;5052564;28;46217;-86
2021/12/07 10:34:22;;;;;;;;;13.50;12.00;;;;;6.96;75.43;100608.06;5052907;28;45761;-86
2021/12/07 10:36:52;;;;;;;;;16.00;12.33;;;;;6.97;76.11;100591.63;5044426;28;45542;-86
2021/12/07 10:39:44;;;;;;;;;13.00;10.50;;;;;7.00;75.70;100577.84;5049470;28;49931;-87
2021/12/07 10:42:20;;;;;;;;;16.75;14.50;;;;;7.05;74.87;100576.41;5048119;28;48258;-86
2021/12/07 10:44:47;;;;;;;;;13.67;11.67;;;;;7.00;75.75;100549.13;5063493;28;45412;-85
2021/12/07 10:47:13;;;;;;;;;11.67;8.00;;;;;7.10;75.71;100551.44;5049667;28;45353;-86
2021/12/07 10:49:46;;;;;;;;;13.25;11.00;;;;;7.11;75.14;100534.97;5051269;28;45342;-89
2021/12/07 10:52:29;;;;;;;;;15.67;11.33;;;;;7.23;75.02;100529.53;5066511;28;46681;-88
2021/12/07 10:54:59;;;;;;;;;12.00;9.67;;;;;7.22;74.98;100506.84;5046420;28;45385;-88
2021/12/07 10:57:30;;;;;;;;;10.33;10.33;;;;;7.36;76.53;100510.22;5048499;28;45812;-88
2021/12/07 11:00:00;;;;;;;;;18.75;14.50;;;;;7.41;75.05;100509.56;5047258;28;45562;-88
2021/12/07 11:02:31;;;;;;;;;15.50;12.75;;;;;7.40;74.98;100486.88;5049946;28;47156;-86
2021/12/07 11:04:57;;;;;;;;;9.25;9.25;;;;;7.50;76.00;100494.38;5039036;28;45571;-86
2021/12/07 11:07:24;;;;;;;;;11.33;9.00;;;;;7.52;75.08;100468.38;5067797;28;45381;-86
2021/12/07 11:10:08;;;;;;;;;12.75;12.00;;;;;7.57;75.13;100470.41;5048844;28;45607;-87
2021/12/07 11:15:33;;;;;;;;;13.00;11.75;;;;;7.54;75.00;100427.56;5049779;28;45417;-88
2021/12/07 11:18:07;;;;;;;;;20.50;16.50;;;;;7.57;75.25;100423.41;5049757;28;45357;-89
2021/12/07 11:20:35;;;;;;;;;16.75;13.75;;;;;7.62;75.20;100405.34;5046567;28;45628;-87
2021/12/07 11:23:06;;;;;;;;;23.25;16.75;;;;;7.60;74.90;100400.03;5048612;28;47221;-86
2021/12/07 11:31:30;;;;;;;;;21.00;16.00;;;;;7.78;75.18;100375.66;5051816;28;45379;-86
2021/12/07 11:34:14;;;;;;;;;17.50;13.75;;;;;7.82;75.12;100367.19;5049093;28;45514;-87
2021/12/07 11:36:46;;;;;;;;;18.25;15.00;;;;;7.89;75.53;100346.56;5045894;28;45665;-88
2021/12/07 11:39:32;;;;;;;;;14.00;13.00;;;;;7.90;74.98;100335.31;5049134;28;45387;-90
2021/12/07 11:42:06;;;;;;;;;18.25;16.00;;;;;8.02;75.48;100325.44;5048902;28;45725;-87
2021/12/07 11:44:35;;;;;;;;;17.25;15.00;;;;;8.08;75.50;100317.00;5052443;28;45515;-86
2021/12/07 11:47:03;;;;;;;;;20.00;16.25;;;;;8.11;74.17;100306.72;5043214;28;45401;-90
2021/12/07 11:49:32;;;;;;;;;12.50;11.00;;;;;8.13;75.19;100297.22;5057150;28;45459;-87
2021/12/07 11:52:01;;;;;;;;;16.25;10.50;;;;;8.20;74.84;100297.50;5050530;28;45794;-86
2021/12/07 11:54:39;;;;;;;;;13.75;11.75;;;;;8.24;74.70;100279.44;5053095;28;46288;-86
2021/12/07 11:57:08;;;;;;;;;13.00;10.33;;;;;8.29;73.75;100274.41;5052433;28;45618;-86
2021/12/07 11:59:34;;;;;;;;;17.00;9.33;;;;;8.31;72.73;100264.91;5049284;28;45491;-85
2021/12/07 12:02:00;;;;;;;;;10.67;9.00;;;;;8.27;73.15;100252.53;5050353;28;45483;-86
2021/12/07 12:04:25;;;;;;;;;12.33;11.00;;;;;8.20;74.09;100235.66;5051877;28;45536;-87
2021/12/07 12:06:54;;;;;;;;;10.33;7.33;;;;;8.20;72.28;100235.66;5051504;28;45528;-87
2021/12/07 12:09:22;;;;;;;;;15.67;11.67;;;;;8.16;71.50;100226.78;5052032;28;45619;-86
2021/12/07 12:12:15;;;;;;;;;13.00;12.00;;;;;8.18;72.08;100239.00;5052853;28;45655;-84
2021/12/07 12:14:46;;;;;;;;;11.33;10.67;;;;;8.15;74.34;100221.47;5050148;28;46650;-87
2021/12/07 12:17:18;;;;;;;;;10.33;10.33;;;;;8.11;74.15;100207.38;5042790;28;45449;-88
2021/12/07 12:19:47;;;;;;;;;15.00;12.00;;;;;8.20;75.12;100216.44;5050261;28;45452;-88
2021/12/07 12:22:31;;;;;;;;;12.33;9.00;;;;;8.20;72.38;100195.53;5066143;27;45653;-88
2021/12/07 12:25:00;;;;;;;;;8.67;7.33;;;;;8.22;72.51;100170.38;5064767;28;47567;-87
2021/12/07 12:27:31;;;;;;;;;9.67;7.33;;;;;8.31;73.36;100172.50;5046430;28;45486;-87
2021/12/07 12:29:58;;;;;;;;;12.67;8.33;;;;;8.32;74.50;100171.69;5051148;28;45551;-88
2021/12/07 12:32:53;;;;;;;;;11.33;8.00;;;;;8.30;73.93;100152.41;5049527;28;45635;-85
2021/12/07 12:35:38;;;;;;;;;11.33;9.33;;;;;8.31;74.00;100133.25;5049302;28;46624;-85
2021/12/07 12:38:15;;;;;;;;;7.33;7.33;;;;;8.35;74.69;100129.97;5051059;28;46799;-85
2021/12/07 12:40:41;;;;;;;;;9.00;8.33;;;;;8.38;74.19;100117.00;5047370;28;45466;-85
2021/12/07 12:43:07;;;;;;;;;9.33;9.00;;;;;8.35;73.47;100101.22;5049774;28;45791;-87
2021/12/07 12:45:37;;;;;;;;;11.00;10.33;;;;;8.44;74.68;100101.59;5048341;28;45417;-88
2021/12/07 12:48:11;;;;;;;;;11.67;11.33;;;;;8.47;72.88;100093.91;5049524;28;45696;-87
2021/12/07 12:50:42;;;;;;;;;10.33;8.00;;;;;8.49;74.42;100073.94;5050780;28;45637;-88
2021/12/07 12:53:12;;;;;;;;;7.00;7.00;;;;;8.52;73.72;100056.56;5051576;28;45887;-88
2021/12/07 12:55:45;;;;;;;;;8.67;7.00;;;;;8.56;73.73;100048.00;5053493;28;45536;-88
2021/12/07 12:58:20;;;;;;;;;7.67;7.67;;;;;8.60;73.90;100063.06;5050944;28;45515;-87
2021/12/07 13:01:03;;;;;;;;;7.00;4.00;;;;;8.59;73.54;100040.34;5047325;28;45434;-87
2021/12/07 13:03:54;;;;;;;;;8.33;5.00;;;;;8.59;73.86;100038.63;5047309;28;45606;-87
2021/12/07 13:06:25;;;;;;;;;7.00;6.00;;;;;8.60;73.02;100042.13;5043313;28;46437;-87
2021/12/07 13:08:52;;;;;;;;;7.00;7.00;;;;;8.56;74.44;100037.56;5049655;28;45750;-87
2021/12/07 13:11:41;;;;;;;;;6.33;6.00;;;;;8.55;74.21;100001.78;5053974;28;45346;-88
2021/12/07 13:14:27;;;;;;;;;3.67;3.67;;;;;8.56;74.56;100028.00;5068748;28;45425;-88
2021/12/07 13:17:14;;;;;;;;;10.67;8.67;;;;;8.55;73.08;100013.13;5068392;28;47079;-91
2021/12/07 13:20:06;;;;;;;;;2.00;2.00;;;;;8.58;71.76;100018.50;5078035;28;45460;-87
2021/12/07 13:22:43;;;;;;;;;5.67;5.67;;;;;8.60;73.27;100026.44;5044764;28;45538;-85
2021/12/07 13:25:32;;;;;;;;;3.67;3.67;;;;;8.63;73.30;100012.59;5052581;28;45591;-85
2021/12/07 13:28:04;;;;;;;;;7.67;5.33;;;;;8.63;73.77;99996.91;5051278;28;46900;-87
2021/12/07 13:30:47;;;;;;;;;5.00;4.00;;;;;8.69;74.05;99991.91;5062987;28;45975;-87